Time;durP1;ratioP1;P1;durP2;ratioP2;P2;SDS_P1;SDS_P2;PMS_P1;PMS_P2;Temp;Humidity;BMP_temperature;BMP_pressure;BME280_temperature;BME280_humidity;BME280_pressure;Samples;Min_cycle;Max_cycle;Signal;HPM_P1;HPM_P2
2022/03/17 00:00:55;;;;;;;;;;;10.60;99.90;;;;;;5033384;28;19925;-78
2022/03/17 00:03:22;;;;;;;;;;;10.60;99.90;;;;;;5040582;28;20288;-81
2022/03/17 00:05:49;;;;;;;;;;;10.60;99.90;;;;;;5041392;28;19924;-81
2022/03/17 00:08:16;;;;;;;;;;;10.70;99.90;;;;;;5041795;28;19929;-81
2022/03/17 00:10:43;;;;;;;;;;;10.70;99.90;;;;;;5059936;28;19924;-81
2022/03/17 00:13:12;;;;;;;;;;;10.70;99.90;;;;;;5061283;28;19939;-81
2022/03/17 00:15:40;;;;;;;;;;;10.70;99.90;;;;;;5078025;28;19924;-81
2022/03/17 00:18:07;;;;;;;;;;;10.70;99.90;;;;;;5078607;28;19925;-81
2022/03/17 00:20:34;;;;;;;;;;;10.70;99.90;;;;;;5060429;28;19924;-81
2022/03/17 00:23:00;;;;;;;;;;;10.70;99.90;;;;;;5078710;28;19924;-81
2022/03/17 00:25:29;;;;;;;;;;;10.70;99.90;;;;;;5061854;28;19932;-81
2022/03/17 00:27:56;;;;;;;;;;;10.70;99.90;;;;;;5078725;28;19929;-80
2022/03/17 00:30:24;;;;;;;;;;;10.70;99.90;;;;;;5077740;28;19924;-81
2022/03/17 00:32:51;;;;;;;;;;;10.70;99.90;;;;;;5078383;28;19935;-81
2022/03/17 00:35:38;;;;;;;;;;;10.70;99.90;;;;;;5061295;28;19924;-81
2022/03/17 00:38:07;;;;;;;;;;;10.70;99.90;;;;;;5061626;28;19931;-82
2022/03/17 00:40:35;;;;;;;;;;;10.70;99.90;;;;;;5077445;28;19929;-81
2022/03/17 00:43:02;;;;;;;;;;;10.70;99.90;;;;;;5078160;28;19932;-81
2022/03/17 00:45:31;;;;;;;;;;;10.60;99.90;;;;;;5061918;28;19931;-81
2022/03/17 00:47:57;;;;;;;;;;;10.60;99.90;;;;;;5078800;28;19925;-81
2022/03/17 00:50:24;;;;;;;;;;;10.60;99.90;;;;;;5078252;28;19924;-81
2022/03/17 00:52:52;;;;;;;;;;;10.60;99.90;;;;;;5062336;28;20457;-81
2022/03/17 00:55:19;;;;;;;;;;;10.60;99.90;;;;;;5082681;28;19967;-80
2022/03/17 00:57:46;;;;;;;;;;;10.60;99.90;;;;;;5066720;28;19948;-80
2022/03/17 01:00:15;;;;;;;;;;;10.60;99.90;;;;;;5064489;28;20002;-81
2022/03/17 01:02:43;;;;;;;;;;;10.60;99.90;;;;;;5065803;28;19968;-81
2022/03/17 01:05:10;;;;;;;;;;;10.60;99.90;;;;;;5079381;28;19925;-81
2022/03/17 01:07:37;;;;;;;;;;;10.60;99.90;;;;;;5074394;28;20011;-81
2022/03/17 01:10:04;;;;;;;;;;;10.60;99.90;;;;;;5058061;28;20296;-81
2022/03/17 01:12:31;;;;;;;;;;;10.60;99.90;;;;;;5074664;28;19935;-81
2022/03/17 01:14:58;;;;;;;;;;;10.60;99.90;;;;;;5058372;28;20481;-81
2022/03/17 01:17:25;;;;;;;;;;;10.60;99.90;;;;;;5074801;28;19928;-81
2022/03/17 01:19:54;;;;;;;;;;;10.60;99.90;;;;;;5058020;28;20350;-81
2022/03/17 01:22:21;;;;;;;;;;;10.60;99.90;;;;;;5057930;28;19925;-81
2022/03/17 01:24:49;;;;;;;;;;;10.60;99.90;;;;;;5058211;28;19924;-80
2022/03/17 01:27:19;;;;;;;;;;;10.60;99.90;;;;;;5074594;28;19924;-81
2022/03/17 01:29:46;;;;;;;;;;;10.60;99.90;;;;;;5073754;28;20307;-81
2022/03/17 01:32:13;;;;;;;;;;;10.50;99.90;;;;;;5074665;28;19924;-81
2022/03/17 01:34:40;;;;;;;;;;;10.50;99.90;;;;;;5058279;28;20305;-81
2022/03/17 01:37:08;;;;;;;;;;;10.50;99.90;;;;;;5074125;28;19928;-81
2022/03/17 01:39:35;;;;;;;;;;;10.50;99.90;;;;;;5057683;28;19925;-81
2022/03/17 01:42:04;;;;;;;;;;;10.50;99.90;;;;;;5058374;28;19929;-81
2022/03/17 01:44:30;;;;;;;;;;;10.50;99.90;;;;;;5057955;28;19924;-81
2022/03/17 01:49:42;;;;;;;;;;;10.50;99.90;;;;;;5057061;28;19924;-81
2022/03/17 01:52:10;;;;;;;;;;;10.50;99.90;;;;;;5075194;28;20342;-81
2022/03/17 01:54:37;;;;;;;;;;;10.50;99.90;;;;;;5058185;28;19925;-81
2022/03/17 01:57:05;;;;;;;;;;;10.50;99.90;;;;;;5074730;28;19928;-81
2022/03/17 01:59:32;;;;;;;;;;;10.50;99.90;;;;;;5057546;28;19924;-81
2022/03/17 02:01:59;;;;;;;;;;;10.50;99.90;;;;;;5057582;28;19925;-81
2022/03/17 02:04:26;;;;;;;;;;;10.50;99.90;;;;;;5057269;28;19994;-81
2022/03/17 02:06:52;;;;;;;;;;;10.50;99.90;;;;;;5074725;28;19932;-81
2022/03/17 02:09:24;;;;;;;;;;;10.40;99.90;;;;;;5073730;28;19924;-80
2022/03/17 02:14:36;;;;;;;;;;;10.40;99.90;;;;;;5057651;28;19924;-81
2022/03/17 02:17:03;;;;;;;;;;;10.40;99.90;;;;;;5057013;28;19928;-81
2022/03/17 02:19:30;;;;;;;;;;;10.40;99.90;;;;;;5057305;28;19925;-81
2022/03/17 02:21:57;;;;;;;;;;;10.40;99.90;;;;;;5074045;28;19928;-80
2022/03/17 02:27:09;;;;;;;;;;;10.40;99.90;;;;;;5057263;28;19935;-82
2022/03/17 02:29:38;;;;;;;;;;;10.40;99.90;;;;;;5056457;28;19924;-82
2022/03/17 02:32:05;;;;;;;;;;;10.40;99.90;;;;;;5073904;28;20019;-82
2022/03/17 02:34:32;;;;;;;;;;;10.40;99.90;;;;;;5057282;28;19970;-81
2022/03/17 02:37:00;;;;;;;;;;;10.40;99.90;;;;;;5057279;28;19932;-82
2022/03/17 02:39:29;;;;;;;;;;;10.40;99.90;;;;;;5073509;28;19937;-81
2022/03/17 02:41:56;;;;;;;;;;;10.40;99.90;;;;;;5074106;28;19929;-80
2022/03/17 02:44:22;;;;;;;;;;;10.40;99.90;;;;;;5057598;28;19928;-81
2022/03/17 02:46:49;;;;;;;;;;;10.40;99.90;;;;;;5057959;28;19928;-81
2022/03/17 02:49:17;;;;;;;;;;;10.40;99.90;;;;;;5057548;28;20338;-81
2022/03/17 02:51:46;;;;;;;;;;;10.40;99.90;;;;;;5057823;28;20012;-81
2022/03/17 02:54:13;;;;;;;;;;;10.40;99.90;;;;;;5074701;28;19978;-80
2022/03/17 02:56:41;;;;;;;;;;;10.40;99.90;;;;;;5058541;28;19925;-81
2022/03/17 02:59:08;;;;;;;;;;;10.40;99.90;;;;;;5056983;28;19929;-82
2022/03/17 03:01:35;;;;;;;;;;;10.40;99.90;;;;;;5078947;28;19964;-81
2022/03/17 03:04:01;;;;;;;;;;;10.40;99.90;;;;;;5062108;28;19924;-81
2022/03/17 03:06:28;;;;;;;;;;;10.40;99.90;;;;;;5079278;28;19925;-81
2022/03/17 03:08:55;;;;;;;;;;;10.40;99.90;;;;;;5061580;28;19924;-81
2022/03/17 03:11:22;;;;;;;;;;;10.40;99.90;;;;;;5062451;28;19928;-82
2022/03/17 03:13:50;;;;;;;;;;;10.40;99.90;;;;;;5061991;28;19951;-82
2022/03/17 03:16:17;;;;;;;;;;;10.40;99.90;;;;;;5062132;28;19928;-81
2022/03/17 03:18:44;;;;;;;;;;;10.40;99.90;;;;;;5061430;28;19929;-82
2022/03/17 03:21:10;;;;;;;;;;;10.40;99.90;;;;;;5078357;28;19934;-81
2022/03/17 03:23:37;;;;;;;;;;;10.40;99.90;;;;;;5078137;28;19948;-81
2022/03/17 03:26:04;;;;;;;;;;;10.40;99.90;;;;;;5062300;28;19935;-82
2022/03/17 03:28:31;;;;;;;;;;;10.30;99.90;;;;;;5064496;28;19924;-82
2022/03/17 03:30:59;;;;;;;;;;;10.30;99.90;;;;;;5066817;28;19924;-81
2022/03/17 03:33:26;;;;;;;;;;;10.30;99.90;;;;;;5084909;28;19925;-81
2022/03/17 03:38:37;;;;;;;;;;;10.30;99.90;;;;;;5063412;28;20414;-81
2022/03/17 03:41:04;;;;;;;;;;;10.30;99.90;;;;;;5062544;28;19933;-81
2022/03/17 03:43:32;;;;;;;;;;;10.30;99.90;;;;;;5079563;28;19924;-81
2022/03/17 03:46:00;;;;;;;;;;;10.30;99.90;;;;;;5062340;28;19935;-81
2022/03/17 03:48:27;;;;;;;;;;;10.20;99.90;;;;;;5062052;28;19925;-81
2022/03/17 03:50:54;;;;;;;;;;;10.20;99.90;;;;;;5060918;28;19928;-81
2022/03/17 03:53:21;;;;;;;;;;;10.20;99.90;;;;;;5066706;28;19951;-81
2022/03/17 03:55:47;;;;;;;;;;;10.20;99.90;;;;;;5055287;28;19925;-82
2022/03/17 03:58:14;;;;;;;;;;;10.20;99.90;;;;;;5063078;28;19929;-81
2022/03/17 04:00:41;;;;;;;;;;;10.20;99.90;;;;;;5061171;28;19971;-81
2022/03/17 04:03:09;;;;;;;;;;;10.30;99.90;;;;;;5060721;28;20015;-82
2022/03/17 04:05:37;;;;;;;;;;;10.30;99.90;;;;;;5062685;28;19925;-82
2022/03/17 04:08:04;;;;;;;;;;;10.30;99.90;;;;;;5062185;28;19928;-81
2022/03/17 04:10:31;;;;;;;;;;;10.30;99.90;;;;;;5060411;28;19924;-81
2022/03/17 04:12:57;;;;;;;;;;;10.30;99.90;;;;;;5061793;28;19947;-82
2022/03/17 04:15:24;;;;;;;;;;;10.30;99.90;;;;;;5062126;28;19935;-81
2022/03/17 04:17:51;;;;;;;;;;;10.40;99.90;;;;;;5061045;28;19928;-81
2022/03/17 04:20:19;;;;;;;;;;;10.50;99.90;;;;;;5060155;28;19924;-81
2022/03/17 04:22:46;;;;;;;;;;;10.60;99.90;;;;;;5060288;28;19924;-81
2022/03/17 04:25:13;;;;;;;;;;;10.60;99.90;;;;;;5060464;28;19928;-82
2022/03/17 04:27:40;;;;;;;;;;;10.60;99.90;;;;;;5060782;28;19932;-82
2022/03/17 04:30:07;;;;;;;;;;;10.80;99.90;;;;;;5059544;28;19924;-81
2022/03/17 04:32:34;;;;;;;;;;;10.80;99.90;;;;;;5060529;28;19928;-82
2022/03/17 04:35:01;;;;;;;;;;;10.80;99.90;;;;;;5061402;28;19932;-81
2022/03/17 04:37:29;;;;;;;;;;;10.80;99.90;;;;;;5061195;28;19931;-82
2022/03/17 04:39:56;;;;;;;;;;;10.80;99.90;;;;;;5060288;28;19977;-81
2022/03/17 04:42:23;;;;;;;;;;;10.80;99.90;;;;;;5060542;28;19924;-81
2022/03/17 04:44:49;;;;;;;;;;;10.80;99.90;;;;;;5059870;28;19925;-81
2022/03/17 04:47:17;;;;;;;;;;;10.80;99.90;;;;;;5046328;28;19931;-81
2022/03/17 04:49:43;;;;;;;;;;;10.80;99.90;;;;;;5059820;28;19928;-81
2022/03/17 04:53:26;;;;;;;;;;;10.80;99.90;;;;;;5060515;28;19932;-82
2022/03/17 04:55:04;;;;;;;;;;;10.80;99.90;;;;;;5059789;28;20019;-82
2022/03/17 04:57:31;;;;;;;;;;;10.80;99.90;;;;;;5060673;28;19924;-81
2022/03/17 04:59:58;;;;;;;;;;;10.70;99.90;;;;;;5059738;28;19931;-81
2022/03/17 05:02:24;;;;;;;;;;;10.70;99.90;;;;;;5060402;28;19944;-81
2022/03/17 05:04:52;;;;;;;;;;;10.60;99.90;;;;;;5060524;28;19932;-81
2022/03/17 05:07:19;;;;;;;;;;;10.40;99.90;;;;;;5061004;28;20387;-82
2022/03/17 05:09:46;;;;;;;;;;;10.30;99.90;;;;;;5060244;28;20019;-83
2022/03/17 05:12:14;;;;;;;;;;;10.20;99.90;;;;;;5059415;28;19924;-82
2022/03/17 05:14:41;;;;;;;;;;;10.00;99.90;;;;;;5092152;28;19928;-82
2022/03/17 05:17:08;;;;;;;;;;;9.90;99.90;;;;;;5058475;28;19925;-82
2022/03/17 05:19:35;;;;;;;;;;;9.80;99.90;;;;;;5058198;28;19929;-82
2022/03/17 05:22:02;;;;;;;;;;;9.70;99.90;;;;;;5057874;28;19925;-82
2022/03/17 05:24:30;;;;;;;;;;;9.60;99.90;;;;;;5058406;28;19959;-82
2022/03/17 05:26:57;;;;;;;;;;;9.60;99.90;;;;;;5058921;28;19925;-82
2022/03/17 05:29:26;;;;;;;;;;;9.50;99.90;;;;;;5058625;28;19928;-82
2022/03/17 05:31:52;;;;;;;;;;;9.50;99.90;;;;;;5059478;28;19924;-82
2022/03/17 05:34:19;;;;;;;;;;;9.40;99.90;;;;;;5059061;28;19924;-82
2022/03/17 05:36:46;;;;;;;;;;;9.40;99.90;;;;;;5059396;28;20422;-81
2022/03/17 05:39:13;;;;;;;;;;;9.40;99.90;;;;;;5058750;28;19924;-82
2022/03/17 05:41:40;;;;;;;;;;;9.30;99.90;;;;;;5060165;28;19924;-83
2022/03/17 05:44:07;;;;;;;;;;;9.30;99.90;;;;;;5059398;28;19924;-82
2022/03/17 05:46:35;;;;;;;;;;;9.30;99.90;;;;;;5059737;28;19924;-82
2022/03/17 05:49:02;;;;;;;;;;;;;;;;;;5101957;28;19925;-82
2022/03/17 05:51:29;;;;;;;;;;;;;;;;;;5107429;28;19924;-81
2022/03/17 05:53:56;;;;;;;;;;;9.30;99.90;;;;;;5074152;28;19932;-82
2022/03/17 05:56:23;;;;;;;;;;;9.20;99.90;;;;;;5073055;28;19929;-82
2022/03/17 05:58:50;;;;;;;;;;;9.20;99.90;;;;;;5064636;28;19925;-81
2022/03/17 06:01:17;;;;;;;;;;;9.10;99.90;;;;;;5057364;28;20355;-82
2022/03/17 06:03:45;;;;;;;;;;;8.90;99.90;;;;;;5051802;28;19925;-82
2022/03/17 06:06:12;;;;;;;;;;;8.90;99.90;;;;;;5056902;28;19925;-81
2022/03/17 06:08:38;;;;;;;;;;;8.80;99.90;;;;;;5056194;28;19925;-81
2022/03/17 06:11:06;;;;;;;;;;;8.70;99.90;;;;;;5056268;28;19929;-82
2022/03/17 06:13:33;;;;;;;;;;;8.70;99.90;;;;;;5056200;28;19925;-82
2022/03/17 06:16:00;;;;;;;;;;;8.70;99.90;;;;;;5039551;28;19986;-82
2022/03/17 06:18:27;;;;;;;;;;;8.60;99.90;;;;;;5039605;28;19924;-82
2022/03/17 06:20:55;;;;;;;;;;;8.60;99.90;;;;;;5047094;28;19925;-82
2022/03/17 06:23:22;;;;;;;;;;;8.60;99.90;;;;;;5057422;28;19939;-83
2022/03/17 06:25:49;;;;;;;;;;;8.50;99.90;;;;;;5074043;28;19928;-82
2022/03/17 06:28:18;;;;;;;;;;;8.50;99.90;;;;;;5051275;28;20003;-83
2022/03/17 06:30:45;;;;;;;;;;;8.50;99.90;;;;;;5059839;28;19928;-82
2022/03/17 06:33:13;;;;;;;;;;;8.40;99.90;;;;;;5094379;28;19924;-83
2022/03/17 06:35:41;;;;;;;;;;;8.40;99.90;;;;;;5063702;28;19925;-83
2022/03/17 06:38:09;;;;;;;;;;;8.40;99.90;;;;;;5059812;28;19956;-81
2022/03/17 06:40:37;;;;;;;;;;;8.40;99.90;;;;;;5067123;28;19924;-84
2022/03/17 06:43:05;;;;;;;;;;;8.40;99.90;;;;;;5067868;28;19925;-82
2022/03/17 06:45:32;;;;;;;;;;;8.30;99.90;;;;;;5066544;28;20023;-82
2022/03/17 06:47:58;;;;;;;;;;;8.30;99.90;;;;;;5065801;28;19924;-83
2022/03/17 06:50:26;;;;;;;;;;;8.30;99.90;;;;;;5062120;28;19929;-85
2022/03/17 06:52:53;;;;;;;;;;;8.30;99.90;;;;;;5063253;28;19924;-82
2022/03/17 06:55:21;;;;;;;;;;;8.30;99.90;;;;;;5062813;28;19932;-83
2022/03/17 06:57:48;;;;;;;;;;;8.30;99.90;;;;;;5064851;28;19924;-82
2022/03/17 07:00:15;;;;;;;;;;;8.30;99.90;;;;;;5064080;28;19943;-82
2022/03/17 07:02:42;;;;;;;;;;;8.30;99.90;;;;;;5065872;28;19931;-81
2022/03/17 07:05:09;;;;;;;;;;;8.30;99.90;;;;;;5065881;28;19928;-83
2022/03/17 07:07:36;;;;;;;;;;;8.20;99.90;;;;;;5064209;28;19929;-80
2022/03/17 07:10:05;;;;;;;;;;;8.20;99.90;;;;;;5064333;28;19931;-82
2022/03/17 07:12:34;;;;;;;;;;;8.10;99.90;;;;;;5051134;28;20030;-81
2022/03/17 07:15:00;;;;;;;;;;;8.10;99.90;;;;;;5058882;28;19924;-83
2022/03/17 07:17:27;;;;;;;;;;;8.10;99.90;;;;;;5067339;28;19924;-83
2022/03/17 07:20:00;;;;;;;;;;;8.10;99.90;;;;;;5060523;28;19925;-83
2022/03/17 07:22:28;;;;;;;;;;;8.10;99.90;;;;;;5083023;28;19924;-82
2022/03/17 07:24:55;;;;;;;;;;;8.00;99.90;;;;;;5066108;28;19924;-82
2022/03/17 07:27:22;;;;;;;;;;;8.00;99.90;;;;;;5063410;28;19924;-83
2022/03/17 07:29:50;;;;;;;;;;;8.00;99.90;;;;;;5056824;28;19977;-83
2022/03/17 07:32:18;;;;;;;;;;;8.00;99.90;;;;;;5065231;28;19928;-81
2022/03/17 07:34:45;;;;;;;;;;;8.00;99.90;;;;;;5066085;28;19935;-82
2022/03/17 07:37:12;;;;;;;;;;;8.10;99.90;;;;;;5064689;28;19978;-82
2022/03/17 07:39:40;;;;;;;;;;;8.10;99.90;;;;;;5063995;28;19956;-82
2022/03/17 07:42:08;;;;;;;;;;;8.10;99.90;;;;;;5058560;28;19925;-82
2022/03/17 07:44:56;;;;;;;;;;;8.10;99.90;;;;;;5084614;28;19954;-82
2022/03/17 07:47:58;;;;;;;;;;;8.10;99.90;;;;;;5020054;28;19936;-82
2022/03/17 07:50:25;;;;;;;;;;;8.10;99.90;;;;;;5035349;28;19929;-81
2022/03/17 07:52:51;;;;;;;;;;;8.00;99.90;;;;;;5048112;28;20000;-81
2022/03/17 07:55:18;;;;;;;;;;;8.00;99.90;;;;;;5047629;28;19929;-82
2022/03/17 07:57:46;;;;;;;;;;;8.00;99.90;;;;;;5044505;28;19925;-80
2022/03/17 08:00:14;;;;;;;;;;;8.00;99.90;;;;;;5059283;28;19931;-81
2022/03/17 08:02:42;;;;;;;;;;;8.00;99.90;;;;;;5055408;28;20001;-82
2022/03/17 08:05:09;;;;;;;;;;;8.00;99.90;;;;;;5055972;28;19928;-82
2022/03/17 08:07:36;;;;;;;;;;;8.10;99.90;;;;;;5060632;28;19955;-82
2022/03/17 08:10:03;;;;;;;;;;;8.10;99.90;;;;;;5052456;28;19928;-82
2022/03/17 08:12:31;;;;;;;;;;;8.10;99.90;;;;;;5082424;28;19925;-82
2022/03/17 08:14:58;;;;;;;;;;;8.10;99.90;;;;;;5052766;28;19933;-81
2022/03/17 08:17:27;;;;;;;;;;;8.00;99.90;;;;;;5047934;28;19924;-82
2022/03/17 08:19:54;;;;;;;;;;;8.00;99.90;;;;;;5046659;28;19925;-82
2022/03/17 08:22:21;;;;;;;;;;;7.90;99.90;;;;;;5047846;28;20473;-81
2022/03/17 08:24:50;;;;;;;;;;;7.70;99.90;;;;;;5049016;28;20469;-80
2022/03/17 08:27:17;;;;;;;;;;;7.70;99.90;;;;;;5057465;28;19924;-81
2022/03/17 08:29:44;;;;;;;;;;;7.60;99.90;;;;;;5060982;28;19932;-81
2022/03/17 08:32:11;;;;;;;;;;;7.60;99.90;;;;;;5051407;28;20296;-81
2022/03/17 08:34:40;;;;;;;;;;;7.60;99.90;;;;;;5055412;28;19924;-80
2022/03/17 08:37:07;;;;;;;;;;;7.60;99.90;;;;;;5052682;28;19925;-80
2022/03/17 08:39:33;;;;;;;;;;;7.50;99.90;;;;;;5056496;28;19962;-83
2022/03/17 08:42:00;;;;;;;;;;;7.50;99.90;;;;;;5065046;28;19925;-80
2022/03/17 08:44:27;;;;;;;;;;;7.50;99.90;;;;;;5063511;28;19931;-80
2022/03/17 08:49:40;;;;;;;;;;;7.40;99.90;;;;;;5065206;28;20027;-82
2022/03/17 08:52:07;;;;;;;;;;;7.40;99.90;;;;;;5099331;28;19947;-81
2022/03/17 08:54:35;;;;;;;;;;;7.40;99.90;;;;;;5065252;28;19925;-82
2022/03/17 08:57:03;;;;;;;;;;;7.40;99.90;;;;;;5063590;28;19924;-81
2022/03/17 08:59:31;;;;;;;;;;;7.40;99.90;;;;;;5063024;28;19924;-81
2022/03/17 09:01:58;;;;;;;;;;;7.30;99.90;;;;;;5062880;28;19939;-80
2022/03/17 09:04:25;;;;;;;;;;;7.30;99.90;;;;;;5062911;28;19931;-82
2022/03/17 09:06:59;;;;;;;;;;;7.40;99.90;;;;;;5062670;28;19975;-79
2022/03/17 09:09:26;;;;;;;;;;;7.40;99.90;;;;;;5062423;28;19968;-81
2022/03/17 09:11:52;;;;;;;;;;;7.40;99.90;;;;;;5047702;28;19925;-80
2022/03/17 09:14:19;;;;;;;;;;;7.40;99.90;;;;;;5043030;28;19925;-81
2022/03/17 09:16:46;;;;;;;;;;;7.40;99.90;;;;;;5041553;28;19928;-82
2022/03/17 09:19:13;;;;;;;;;;;7.50;99.90;;;;;;5041648;28;19925;-81
2022/03/17 09:21:40;;;;;;;;;;;7.60;99.90;;;;;;5041024;28;19924;-82
2022/03/17 09:24:09;;;;;;;;;;;7.70;99.90;;;;;;5041205;28;19925;-82
2022/03/17 09:26:35;;;;;;;;;;;7.70;99.90;;;;;;5040291;28;19956;-80
2022/03/17 09:29:03;;;;;;;;;;;7.80;99.90;;;;;;5041498;28;19925;-82
2022/03/17 09:31:30;;;;;;;;;;;7.90;99.90;;;;;;5041334;28;19932;-82
2022/03/17 09:33:58;;;;;;;;;;;8.00;99.90;;;;;;5040773;28;19931;-81
2022/03/17 09:36:25;;;;;;;;;;;8.10;99.90;;;;;;5041464;28;19929;-82
2022/03/17 09:41:35;;;;;;;;;;;8.20;99.90;;;;;;5039631;28;19921;-83
2022/03/17 09:44:03;;;;;;;;;;;8.30;99.90;;;;;;5040889;28;19924;-82
2022/03/17 09:46:30;;;;;;;;;;;8.40;99.90;;;;;;5041865;28;19928;-81
2022/03/17 09:48:57;;;;;;;;;;;8.30;99.90;;;;;;5040327;28;19925;-82
2022/03/17 09:51:26;;;;;;;;;;;8.30;99.90;;;;;;5041135;28;19971;-81
2022/03/17 09:53:54;;;;;;;;;;;8.30;99.90;;;;;;5040358;28;19935;-81
2022/03/17 09:56:23;;;;;;;;;;;8.30;99.90;;;;;;5040570;28;19925;-81
2022/03/17 09:58:51;;;;;;;;;;;8.30;99.90;;;;;;5039530;28;19929;-80
2022/03/17 10:01:19;;;;;;;;;;;8.40;99.90;;;;;;5041498;28;19929;-82
2022/03/17 10:03:46;;;;;;;;;;;8.30;99.90;;;;;;5041057;28;19925;-82
2022/03/17 10:06:14;;;;;;;;;;;8.30;99.90;;;;;;5041281;28;20019;-82
2022/03/17 10:08:42;;;;;;;;;;;8.30;99.90;;;;;;5040846;28;19929;-81
2022/03/17 10:11:09;;;;;;;;;;;8.30;99.90;;;;;;5049249;28;20404;-81
2022/03/17 10:13:43;;;;;;;;;;;8.20;99.90;;;;;;5060430;28;19925;-81
2022/03/17 10:16:12;;;;;;;;;;;8.30;99.90;;;;;;5061503;28;19925;-82
2022/03/17 10:18:40;;;;;;;;;;;8.20;99.90;;;;;;5060531;28;20419;-80
2022/03/17 10:21:08;;;;;;;;;;;8.20;99.90;;;;;;5060424;28;19980;-81
2022/03/17 10:23:35;;;;;;;;;;;8.20;99.90;;;;;;5060345;28;19932;-81
2022/03/17 10:26:01;;;;;;;;;;;8.30;99.90;;;;;;5061734;28;19924;-82
2022/03/17 10:28:31;;;;;;;;;;;8.30;99.90;;;;;;5062103;28;19978;-82
2022/03/17 10:31:04;;;;;;;;;;;8.30;99.90;;;;;;5062124;28;19935;-81
2022/03/17 10:33:33;;;;;;;;;;;8.30;99.90;;;;;;5061279;28;19928;-82
2022/03/17 10:36:16;;;;;;;;;;;8.30;99.90;;;;;;5061747;28;19936;-82
2022/03/17 10:38:44;;;;;;;;;;;8.30;99.90;;;;;;5058030;28;20410;-80
2022/03/17 10:41:12;;;;;;;;;;;8.20;99.90;;;;;;5057519;28;19924;-81
2022/03/17 10:43:39;;;;;;;;;;;8.30;99.90;;;;;;5058396;28;20023;-82
2022/03/17 10:46:06;;;;;;;;;;;8.30;99.90;;;;;;5055013;28;20064;-80
2022/03/17 10:48:35;;;;;;;;;;;8.30;99.90;;;;;;5047530;28;19925;-81
2022/03/17 10:51:01;;;;;;;;;;;8.40;99.90;;;;;;5078476;28;19985;-81
2022/03/17 10:53:29;;;;;;;;;;;8.60;99.90;;;;;;5057094;28;19928;-82
2022/03/17 10:56:09;;;;;;;;;;;8.80;99.90;;;;;;5051534;28;19928;-81
2022/03/17 10:58:41;;;;;;;;;;;9.00;99.90;;;;;;5058477;28;19925;-81
2022/03/17 11:01:08;;;;;;;;;;;9.10;99.90;;;;;;5058667;28;19967;-80
2022/03/17 11:03:36;;;;;;;;;;;9.20;99.90;;;;;;5058577;28;19924;-81
2022/03/17 11:06:04;;;;;;;;;;;9.10;99.90;;;;;;5047440;28;20027;-80
2022/03/17 11:08:32;;;;;;;;;;;9.00;99.90;;;;;;5048836;28;19924;-79
2022/03/17 11:10:58;;;;;;;;;;;9.00;99.90;;;;;;5048812;28;19924;-81
2022/03/17 11:13:26;;;;;;;;;;;9.10;99.90;;;;;;5036385;28;19925;-80
2022/03/17 11:15:57;;;;;;;;;;;9.20;99.90;;;;;;5044468;28;19924;-81
2022/03/17 11:18:25;;;;;;;;;;;9.20;99.90;;;;;;5061609;28;19955;-80
2022/03/17 11:21:07;;;;;;;;;;;9.20;99.90;;;;;;5056088;28;19931;-80
2022/03/17 11:23:54;;;;;;;;;;;9.40;99.90;;;;;;5058355;28;19931;-80
2022/03/17 11:26:22;;;;;;;;;;;9.40;99.90;;;;;;5074930;28;19924;-80
2022/03/17 11:28:49;;;;;;;;;;;9.50;99.90;;;;;;5058449;28;19925;-81
2022/03/17 11:31:19;;;;;;;;;;;9.70;99.90;;;;;;5058679;28;19924;-80
2022/03/17 11:33:46;;;;;;;;;;;9.90;99.90;;;;;;5057874;28;20276;-80
2022/03/17 11:36:15;;;;;;;;;;;10.00;99.90;;;;;;5075493;28;19924;-80
2022/03/17 11:39:02;;;;;;;;;;;10.00;99.90;;;;;;5057643;28;19993;-79
2022/03/17 11:41:30;;;;;;;;;;;9.90;99.90;;;;;;5058365;28;20330;-80
2022/03/17 11:44:02;;;;;;;;;;;10.10;99.90;;;;;;5074744;28;20471;-79
2022/03/17 11:46:37;;;;;;;;;;;10.10;99.90;;;;;;5052703;28;19990;-81
2022/03/17 11:49:17;;;;;;;;;;;10.10;99.90;;;;;;5067002;28;19936;-80
2022/03/17 11:51:52;;;;;;;;;;;10.20;99.90;;;;;;5064643;28;20265;-80
2022/03/17 11:54:20;;;;;;;;;;;10.20;99.90;;;;;;5048400;28;19936;-81
2022/03/17 11:56:47;;;;;;;;;;;10.40;99.90;;;;;;5052919;28;19994;-81
2022/03/17 11:59:14;;;;;;;;;;;10.40;99.90;;;;;;5067729;23;20308;-76
2022/03/17 12:01:41;;;;;;;;;;;10.60;99.90;;;;;;5034688;28;19925;-77
2022/03/17 12:04:09;;;;;;;;;;;10.70;99.90;;;;;;5053940;28;19986;-79
2022/03/17 12:06:36;;;;;;;;;;;11.00;99.90;;;;;;5054423;28;19964;-79
2022/03/17 12:09:05;;;;;;;;;;;10.90;99.90;;;;;;5052906;28;19974;-78
2022/03/17 12:11:35;;;;;;;;;;;10.60;99.90;;;;;;5036359;28;20392;-77
2022/03/17 12:14:20;;;;;;;;;;;10.70;99.90;;;;;;5036201;28;19929;-78
2022/03/17 12:16:48;;;;;;;;;;;11.10;99.90;;;;;;5036240;28;19941;-78
2022/03/17 12:19:29;;;;;;;;;;;11.00;99.90;;;;;;5036278;28;19925;-79
2022/03/17 12:22:12;;;;;;;;;;;11.00;99.90;;;;;;5035333;28;19964;-79
2022/03/17 12:24:40;;;;;;;;;;;10.90;99.90;;;;;;5036167;28;19932;-77
2022/03/17 12:27:12;;;;;;;;;;;10.90;99.90;;;;;;5035898;28;19944;-77
2022/03/17 12:29:39;;;;;;;;;;;10.90;99.90;;;;;;5035067;28;19979;-76
2022/03/17 12:32:07;;;;;;;;;;;10.90;99.90;;;;;;5035636;28;19931;-75
2022/03/17 12:34:34;;;;;;;;;;;10.80;99.90;;;;;;5035224;28;20346;-76
2022/03/17 12:37:02;;;;;;;;;;;10.70;99.90;;;;;;5035144;28;19925;-76
2022/03/17 12:39:29;;;;;;;;;;;10.70;99.90;;;;;;5035069;28;19925;-75
2022/03/17 12:41:56;;;;;;;;;;;10.90;99.90;;;;;;5035175;28;19932;-78
2022/03/17 12:44:24;;;;;;;;;;;10.90;99.90;;;;;;5034109;28;20399;-75
2022/03/17 12:46:51;;;;;;;;;;;11.00;99.90;;;;;;5035182;28;19933;-76
2022/03/17 12:49:19;;;;;;;;;;;11.10;99.90;;;;;;5035049;28;19929;-76
2022/03/17 12:51:46;;;;;;;;;;;11.00;99.90;;;;;;5034944;28;19932;-80
2022/03/17 12:54:13;;;;;;;;;;;11.00;99.90;;;;;;5068493;28;19929;-76
2022/03/17 12:56:47;;;;;;;;;;;11.20;99.90;;;;;;5028147;28;19925;-77
2022/03/17 12:59:14;;;;;;;;;;;11.10;99.90;;;;;;5034227;28;19924;-76
2022/03/17 13:01:42;;;;;;;;;;;11.10;99.90;;;;;;5019361;28;19925;-78
2022/03/17 13:04:09;;;;;;;;;;;11.00;99.90;;;;;;5034006;28;19932;-78
2022/03/17 13:06:55;;;;;;;;;;;11.00;99.90;;;;;;5034422;28;19929;-78
2022/03/17 13:09:27;;;;;;;;;;;10.90;99.90;;;;;;5033976;28;19968;-77
2022/03/17 13:14:43;;;;;;;;;;;11.10;99.90;;;;;;5034308;28;19921;-77
2022/03/17 13:17:12;;;;;;;;;;;10.80;99.90;;;;;;5035315;28;19928;-75
2022/03/17 13:19:46;;;;;;;;;;;10.70;99.90;;;;;;5034199;28;20311;-76
2022/03/17 13:22:12;;;;;;;;;;;10.70;99.90;;;;;;5034471;28;19929;-76
2022/03/17 13:24:39;;;;;;;;;;;10.40;99.90;;;;;;5034779;28;19925;-76
2022/03/17 13:27:06;;;;;;;;;;;10.30;99.90;;;;;;5034592;28;19931;-76
2022/03/17 13:29:36;;;;;;;;;;;10.20;99.90;;;;;;5034386;28;20405;-77
2022/03/17 13:32:04;;;;;;;;;;;10.10;99.90;;;;;;5038500;28;19932;-77
2022/03/17 13:34:33;;;;;;;;;;;10.10;99.90;;;;;;5033959;28;19931;-77
2022/03/17 13:37:01;;;;;;;;;;;10.20;99.90;;;;;;5034632;28;19931;-77
2022/03/17 13:39:28;;;;;;;;;;;10.20;99.90;;;;;;5034613;28;19928;-77
2022/03/17 13:41:59;;;;;;;;;;;10.40;99.90;;;;;;5034665;28;19983;-77
2022/03/17 13:44:40;;;;;;;;;;;10.30;99.90;;;;;;5033461;28;19968;-76
2022/03/17 13:47:11;;;;;;;;;;;10.30;99.90;;;;;;5034242;28;19979;-77
2022/03/17 13:49:39;;;;;;;;;;;10.30;99.90;;;;;;5032007;28;20384;-76
2022/03/17 13:52:10;;;;;;;;;;;10.30;99.90;;;;;;5033685;28;19932;-76
2022/03/17 13:54:40;;;;;;;;;;;10.30;99.90;;;;;;5034002;28;19925;-78
2022/03/17 13:57:07;;;;;;;;;;;10.40;99.90;;;;;;5033820;28;19928;-77
2022/03/17 13:59:34;;;;;;;;;;;10.30;99.90;;;;;;5032834;28;19952;-78
2022/03/17 14:02:10;;;;;;;;;;;10.40;99.90;;;;;;5033719;28;19925;-77
2022/03/17 14:04:39;;;;;;;;;;;10.40;99.90;;;;;;5032901;28;19928;-77
2022/03/17 14:07:06;;;;;;;;;;;10.30;99.90;;;;;;5033361;28;20408;-77
2022/03/17 14:09:33;;;;;;;;;;;10.30;99.90;;;;;;5033082;28;19978;-77
2022/03/17 14:11:59;;;;;;;;;;;10.20;99.90;;;;;;5033506;28;19924;-77
2022/03/17 14:14:27;;;;;;;;;;;10.20;99.90;;;;;;5033202;28;20331;-77
2022/03/17 14:16:54;;;;;;;;;;;10.20;99.90;;;;;;5033147;28;19924;-78
2022/03/17 14:19:20;;;;;;;;;;;10.10;99.90;;;;;;5032683;28;20392;-77
2022/03/17 14:24:33;;;;;;;;;;;10.20;99.90;;;;;;5032937;28;19928;-77
2022/03/17 14:27:00;;;;;;;;;;;10.30;99.90;;;;;;5033288;28;19924;-77
2022/03/17 14:29:26;;;;;;;;;;;10.30;99.90;;;;;;5032499;28;19928;-77
2022/03/17 14:31:53;;;;;;;;;;;10.30;99.90;;;;;;5033393;28;19929;-77
2022/03/17 14:34:22;;;;;;;;;;;10.30;99.90;;;;;;5032912;28;19924;-77
2022/03/17 14:36:51;;;;;;;;;;;10.20;99.90;;;;;;5033188;28;19932;-77
2022/03/17 14:39:18;;;;;;;;;;;10.20;99.90;;;;;;5032520;28;19929;-77
2022/03/17 14:41:45;;;;;;;;;;;10.30;99.90;;;;;;5033078;28;19932;-78
2022/03/17 14:44:12;;;;;;;;;;;10.30;99.90;;;;;;5032691;28;19928;-77
2022/03/17 14:46:41;;;;;;;;;;;10.10;99.90;;;;;;5033302;28;19925;-77
2022/03/17 14:49:09;;;;;;;;;;;10.10;99.90;;;;;;5032074;28;20296;-77
2022/03/17 14:51:36;;;;;;;;;;;10.00;99.90;;;;;;5032881;28;19925;-78